Messwerte Fort Stewart

Temperatur

Temperatur
°C
1618822800 5.00 5.00 18
1618826400 6.00 6.00 17
1618830000 7.00 7.00 16
1618833600 8.00 8.00 16
1618837200 9.00 9.00 17
1618840800 10.00 10.00 20
1618844400 11.00 11.00
1618848000 12.00 12.00 23
1618851600 13.00 13.00 23
1618855200 14.00 14.00
1618858800 15.00 15.00 25
1618862400 16.00 16.00 25
1618866000 17.00 17.00 26
1618869600 18.00 18.00 25
1618873200 19.00 19.00 24
1618876800 20.00 20.00 21
1618880400 21.00 21.00 16
1618884000 22.00 22.00 14
1618887600 23.00 23.00 13
1618891200 0.00 0.00 12
1618894800 1.00 1.00 12
1618898400 2.00 2.00 12
1618902000 3.00 3.00 11
1618905600 4.00 4.00 11

Aktuellste Messwerte

Wettercharakter
Wetter: wechselnd bewölkt
Temperatur
11 °C
Feuchtigkeit
80 %
Wind
0 km/h, -
Luftdruck
1014 hPa
Messzeit: 20. April 2021, 5.00Datenquelle: METAR

Weitere Messstationen in der Nähe

Messstation Temperatur Entfernung
Hunter U. S. Army Airfield 18 °C 42 km
Savannah 17 °C 45 km
Statesboro 11 °C 69 km
Brunswick GA 12 °C 70 km
Brunswick GA 15 °C 83 km
Vidalia 14 °C 83 km
Sylvania 11 °C 86 km

Wind

Windrichtung Böen Mittelwind
° km/h km/h
1618822800 5.00 4.00 - 5.00 250° 15
1618826400 6.00 5.00 - 6.00 280° 10
1618830000 7.00 6.00 - 7.00 290° 10
1618833600 8.00 7.00 - 8.00 280° 10
1618837200 9.00 8.00 - 9.00 290° 15
1618840800 10.00 9.00 - 10.00 290° 15
1618844400 11.00 10.00 - 11.00
1618848000 12.00 11.00 - 12.00 270° 35 25
1618851600 13.00 12.00 - 13.00 250° 30 20
1618855200 14.00 13.00 - 14.00
1618858800 15.00 14.00 - 15.00 300° 30 20
1618862400 16.00 15.00 - 16.00 290° 35 20
1618866000 17.00 16.00 - 17.00 300° 30 20
1618869600 18.00 17.00 - 18.00 280° 15
1618873200 19.00 18.00 - 19.00 300° 10
1618876800 20.00 19.00 - 20.00 300° 5
1618880400 21.00 20.00 - 21.00 0
1618884000 22.00 21.00 - 22.00 0
1618887600 23.00 22.00 - 23.00 0
1618891200 0.00 23.00 - 0.00 0
1618894800 1.00 0.00 - 1.00 0
1618898400 2.00 1.00 - 2.00 0
1618902000 3.00 2.00 - 3.00 0
1618905600 4.00 3.00 - 4.00 340° 5

Ihre Wetterstation

Fehlt Ihre Wetterstation auf unserem Portal?

Schreiben Sie an network@meteonews.ch

Klima

Wann ist es am wärmsten? Wann regnet es am wenigsten? Unsere Klimadaten geben Auskunft.